Time;durP1;ratioP1;P1;durP2;ratioP2;P2;SDS_P1;SDS_P2;PMS_P1;PMS_P2;Temp;Humidity;BMP_temperature;BMP_pressure;BME280_temperature;BME280_humidity;BME280_pressure;Samples;Min_cycle;Max_cycle;Signal;HPM_P1;HPM_P2
2022/01/11 04:44:41;;;;;;;16.12;7.53;;;;;;;-1.46;67.33;101221.34;6566020;26;20769;-80
2022/01/11 04:47:45;;;;;;;14.87;7.60;;;;;;;-1.47;66.73;101231.97;6625469;26;238190;-85
2022/01/11 04:50:48;;;;;;;13.15;7.65;;;;;;;-1.38;66.64;101224.41;6633679;26;33649;-85
2022/01/11 04:53:53;;;;;;;15.70;7.72;;;;;;;-1.39;66.73;101232.44;6634097;26;33586;-85
2022/01/11 04:56:55;;;;;;;15.27;7.82;;;;;;;-1.37;66.45;101233.22;6633725;26;34255;-82
2022/01/11 04:59:59;;;;;;;16.40;7.87;;;;;;;-1.39;66.69;101235.06;6633983;26;33398;-82
2022/01/11 05:03:03;;;;;;;15.15;7.60;;;;;;;-1.48;66.90;101248.75;6633785;26;32532;-82
2022/01/11 05:06:06;;;;;;;16.48;7.65;;;;;;;-1.45;66.92;101249.44;6633621;26;34340;-81
2022/01/11 05:09:09;;;;;;;18.90;7.82;;;;;;;-1.55;66.97;101245.59;6633615;26;33492;-81
2022/01/11 05:12:13;;;;;;;15.68;8.13;;;;;;;-1.49;66.76;101255.84;6633767;26;33463;-81
2022/01/11 05:15:16;;;;;;;16.02;7.37;;;;;;;-1.52;66.96;101260.41;6634012;26;34038;-81
2022/01/11 05:18:20;;;;;;;17.45;8.13;;;;;;;-1.39;66.63;101264.13;6637053;26;33189;-81
2022/01/11 05:21:22;;;;;;;16.40;7.75;;;;;;;-1.56;67.10;101275.56;6634217;26;34174;-81
2022/01/11 05:24:25;;;;;;;16.05;7.85;;;;;;;-1.63;67.22;101269.75;6634451;26;33854;-81
2022/01/11 05:27:29;;;;;;;17.25;8.60;;;;;;;-1.64;67.77;101268.03;6635444;26;34629;-81
2022/01/11 05:30:32;;;;;;;16.67;8.65;;;;;;;-1.50;67.05;101283.16;6638019;26;33699;-80
2022/01/11 05:33:35;;;;;;;21.58;8.52;;;;;;;-1.58;67.10;101287.97;6637808;26;33829;-80
2022/01/11 05:36:39;;;;;;;18.23;8.85;;;;;;;-1.60;67.75;101295.13;6638510;26;33895;-80
2022/01/11 05:39:41;;;;;;;17.67;8.77;;;;;;;-1.61;67.63;101299.56;6636758;26;33621;-80
2022/01/11 05:42:45;;;;;;;17.00;8.73;;;;;;;-1.71;68.41;101298.31;6636480;26;34246;-81
2022/01/11 05:45:49;;;;;;;15.82;7.50;;;;;;;-1.67;67.98;101315.72;6634984;26;33560;-81
2022/01/11 05:48:52;;;;;;;17.70;8.60;;;;;;;-1.80;68.23;101316.38;6634453;26;34388;-80
2022/01/11 05:51:55;;;;;;;16.17;8.93;;;;;;;-1.73;67.87;101318.63;6634814;26;34856;-81
2022/01/11 05:54:58;;;;;;;15.88;8.07;;;;;;;-1.74;67.71;101324.00;6634720;26;34977;-81
2022/01/11 05:58:01;;;;;;;14.77;7.70;;;;;;;-1.78;68.10;101331.22;6634629;26;33597;-81
2022/01/11 06:01:04;;;;;;;15.82;8.63;;;;;;;-1.81;68.51;101334.00;6634891;26;33180;-81
2022/01/11 06:04:07;;;;;;;15.82;8.18;;;;;;;-1.84;68.41;101328.87;6634855;26;34296;-81
2022/01/11 06:07:10;;;;;;;15.80;8.35;;;;;;;-1.91;68.63;101336.22;6637446;26;33444;-81
2022/01/11 06:10:14;;;;;;;16.50;7.87;;;;;;;-2.01;68.50;101337.63;6639042;26;33712;-81
2022/01/11 06:13:18;;;;;;;16.65;7.68;;;;;;;-1.91;68.61;101335.37;6638529;26;33649;-81
2022/01/11 06:16:21;;;;;;;16.62;8.05;;;;;;;-1.88;68.03;101354.56;6635054;26;33638;-80
2022/01/11 06:19:26;;;;;;;17.45;8.43;;;;;;;-1.98;68.59;101368.28;6640139;26;33572;-81
2022/01/11 06:22:32;;;;;;;16.92;7.80;;;;;;;-1.98;68.51;101360.38;6644837;26;33563;-81
2022/01/11 06:25:38;;;;;;;18.12;8.82;;;;;;;-1.99;68.74;101372.72;6646361;26;33913;-81
2022/01/11 06:28:43;;;;;;;15.70;7.97;;;;;;;-1.95;68.11;101381.31;6645283;26;33735;-80
2022/01/11 06:31:46;;;;;;;19.73;8.30;;;;;;;-1.88;68.21;101377.44;6637504;26;33551;-78
2022/01/11 06:34:49;;;;;;;16.48;7.82;;;;;;;-1.85;68.35;101395.78;6634608;26;33586;-79
2022/01/11 06:37:52;;;;;;;17.27;8.63;;;;;;;-1.89;68.03;101399.50;6633497;26;33233;-79
2022/01/11 06:40:55;;;;;;;18.25;9.07;;;;;;;-1.94;68.04;101394.44;6633904;26;33299;-79
2022/01/11 06:43:58;;;;;;;20.80;8.85;;;;;;;-1.95;68.50;101405.94;6633888;26;34066;-79
2022/01/11 06:47:02;;;;;;;15.35;8.60;;;;;;;-2.12;68.91;101405.84;6634109;26;33260;-79
2022/01/11 06:50:05;;;;;;;19.52;8.70;;;;;;;-2.06;69.22;101414.34;6634270;26;33579;-79
2022/01/11 06:53:10;;;;;;;16.67;8.43;;;;;;;-1.89;68.35;101420.63;6634216;26;33904;-79
2022/01/11 06:56:13;;;;;;;19.35;9.20;;;;;;;-2.01;69.35;101421.19;6634713;26;33432;-78
2022/01/11 06:59:16;;;;;;;21.00;10.00;;;;;;;-2.03;69.48;101431.81;6634045;26;33838;-83
2022/01/11 07:02:19;;;;;;;20.15;10.40;;;;;;;-2.08;69.69;101425.88;6634422;26;33876;-83
2022/01/11 07:05:23;;;;;;;22.50;11.00;;;;;;;-1.93;69.17;101437.50;6633939;26;34059;-83
2022/01/11 07:08:27;;;;;;;19.23;10.32;;;;;;;-1.91;68.73;101431.22;6637599;26;33428;-79
2022/01/11 07:11:30;;;;;;;18.85;10.30;;;;;;;-1.95;69.56;101434.09;6644152;26;33144;-80
2022/01/11 07:14:33;;;;;;;20.60;9.20;;;;;;;-1.94;68.88;101430.53;6634931;26;33504;-80
2022/01/11 07:17:37;;;;;;;21.10;9.45;;;;;;;-1.90;69.07;101443.53;6634874;26;34279;-80
2022/01/11 07:20:44;;;;;;;19.23;9.93;;;;;;;-1.86;69.32;101447.72;6636654;26;33954;-79
2022/01/11 07:23:47;;;;;;;26.12;10.10;;;;;;;-1.77;69.07;101443.78;6637927;26;33841;-80
2022/01/11 07:26:50;;;;;;;25.00;11.32;;;;;;;-1.60;68.32;101449.12;6641214;26;34384;-79
2022/01/11 07:29:54;;;;;;;24.85;10.93;;;;;;;-1.48;68.62;101452.97;6643365;26;33866;-79
2022/01/11 07:32:57;;;;;;;21.35;10.25;;;;;;;-1.36;67.60;101456.78;6636553;26;34104;-80
2022/01/11 07:36:00;;;;;;;21.42;9.80;;;;;;;-1.30;67.00;101455.62;6633854;26;33892;-80
2022/01/11 07:39:04;;;;;;;24.27;10.88;;;;;;;-1.19;66.95;101448.88;6633907;26;33823;-80
2022/01/11 07:42:07;;;;;;;20.37;10.02;;;;;;;-1.02;66.75;101458.62;6634374;26;33347;-80
2022/01/11 07:45:13;;;;;;;20.48;9.80;;;;;;;-0.85;65.08;101456.91;6634660;26;33152;-80
2022/01/11 07:48:16;;;;;;;32.42;11.93;;;;;;;-0.68;64.56;101464.84;6634171;26;33319;-80
2022/01/11 07:51:19;;;;;;;18.85;9.70;;;;;;;-0.56;63.89;101468.63;6634319;26;33468;-80
2022/01/11 07:54:22;;;;;;;21.58;9.90;;;;;;;-0.48;62.95;101469.94;6634024;26;33545;-80
2022/01/11 07:57:26;;;;;;;20.98;9.70;;;;;;;-0.37;63.33;101466.75;6634280;26;33834;-80
2022/01/11 08:00:31;;;;;;;20.98;9.52;;;;;;;-0.29;61.84;101472.50;6634330;26;34580;-80
2022/01/11 08:03:36;;;;;;;18.00;9.60;;;;;;;-0.24;61.19;101472.22;6636037;26;33175;-80
2022/01/11 08:06:39;;;;;;;20.02;9.43;;;;;;;-0.16;60.92;101479.78;6641154;26;33371;-79
2022/01/11 08:09:42;;;;;;;18.67;10.23;;;;;;;-0.02;60.70;101482.53;6638956;26;34298;-79
2022/01/11 08:12:45;;;;;;;22.10;10.20;;;;;;;0.06;60.74;101488.28;6632738;26;34724;-80
2022/01/11 08:15:49;;;;;;;19.87;9.82;;;;;;;0.22;60.37;101489.12;6634392;26;33798;-80
2022/01/11 08:18:52;;;;;;;18.00;9.68;;;;;;;0.31;59.08;101493.09;6640038;26;33316;-80
2022/01/11 08:21:57;;;;;;;16.60;8.70;;;;;;;0.37;58.02;101497.19;6634186;26;34218;-80
2022/01/11 08:25:01;;;;;;;18.62;9.02;;;;;;;0.71;57.17;101495.31;6638055;26;33187;-79
2022/01/11 08:28:04;;;;;;;17.05;9.27;;;;;;;0.67;57.14;101498.16;6636608;26;33941;-79
2022/01/11 08:31:12;;;;;;;18.33;8.77;;;;;;;0.80;56.94;101498.28;6639571;26;34243;-80
2022/01/11 08:34:16;;;;;;;19.33;11.38;;;;;;;0.94;56.76;101505.47;6647727;26;33691;-80
2022/01/11 08:37:19;;;;;;;23.00;10.57;;;;;;;0.79;55.53;101504.53;6634636;26;34975;-79
2022/01/11 08:40:24;;;;;;;20.83;10.25;;;;;;;0.76;56.24;101507.38;6634897;26;34043;-79
2022/01/11 08:43:27;;;;;;;21.08;10.63;;;;;;;0.83;56.28;101510.53;6632812;26;33665;-79
2022/01/11 08:46:31;;;;;;;19.23;10.90;;;;;;;0.94;55.90;101513.41;6631311;26;33272;-81
2022/01/11 08:49:35;;;;;;;21.90;10.15;;;;;;;1.02;56.22;101505.84;6633530;26;33527;-80
2022/01/11 08:52:42;;;;;;;22.20;11.38;;;;;;;1.16;54.89;101506.88;6634433;26;33385;-81
2022/01/11 08:55:47;;;;;;;21.35;11.02;;;;;;;1.10;55.59;101506.25;6632797;26;34126;-81
2022/01/11 08:58:51;;;;;;;20.80;10.38;;;;;;;1.18;56.15;101502.34;6638673;26;35417;-84
2022/01/11 09:01:58;;;;;;;21.20;11.05;;;;;;;1.22;54.43;101504.69;6634293;26;35022;-84
2022/01/11 09:05:04;;;;;;;19.42;9.98;;;;;;;1.38;54.03;101511.78;6616089;26;33921;-81
2022/01/11 09:08:10;;;;;;;18.73;9.95;;;;;;;1.46;53.84;101517.47;6634431;26;34046;-81
2022/01/11 09:11:13;;;;;;;25.17;11.27;;;;;;;1.51;52.64;101524.19;6635180;26;33614;-80
2022/01/11 09:14:17;;;;;;;22.62;10.80;;;;;;;1.39;53.88;101521.44;6634617;26;34450;-80
2022/01/11 09:17:20;;;;;;;22.70;10.80;;;;;;;1.32;53.40;101523.59;6635263;26;33744;-80
2022/01/11 09:20:23;;;;;;;20.92;10.18;;;;;;;1.49;53.23;101523.47;6634253;26;35050;-81
2022/01/11 09:23:27;;;;;;;18.92;9.55;;;;;;;1.52;52.62;101531.25;6636735;26;34134;-80
2022/01/11 09:26:30;;;;;;;16.98;8.93;;;;;;;1.55;52.13;101516.91;6635905;26;34952;-80
2022/01/11 09:29:36;;;;;;;17.37;9.05;;;;;;;1.54;52.45;101516.06;6635402;26;33774;-81
2022/01/11 09:32:41;;;;;;;18.50;9.68;;;;;;;1.62;52.36;101520.06;6636288;26;33574;-80
2022/01/11 09:35:44;;;;;;;18.27;9.18;;;;;;;1.79;52.53;101509.28;6635864;26;33483;-80
2022/01/11 09:38:47;;;;;;;22.02;9.70;;;;;;;1.81;51.23;101505.59;6638887;26;33391;-81
2022/01/11 09:41:50;;;;;;;17.70;9.63;;;;;;;2.00;51.61;101509.78;6637039;26;33862;-81
2022/01/11 09:44:54;;;;;;;17.90;9.70;;;;;;;1.97;50.68;101507.31;6637162;26;33599;-80
2022/01/11 09:47:57;;;;;;;18.92;9.88;;;;;;;2.13;50.69;101504.53;6637679;26;33951;-80
2022/01/11 09:51:00;;;;;;;18.52;9.13;;;;;;;2.23;50.41;101505.69;6637359;26;34490;-80
2022/01/11 09:54:05;;;;;;;18.98;9.60;;;;;;;2.34;50.42;101502.34;6640333;26;33809;-80
2022/01/11 09:57:09;;;;;;;19.48;9.57;;;;;;;2.22;50.16;101498.66;6644058;26;33688;-80
2022/01/11 10:00:15;;;;;;;15.93;9.02;;;;;;;2.30;50.29;101499.03;6643247;26;34127;-80
2022/01/11 10:03:18;;;;;;;17.37;8.68;;;;;;;2.33;50.12;101495.31;6635559;26;34017;-81
2022/01/11 10:06:24;;;;;;;42.67;8.88;;;;;;;2.33;49.89;101500.63;6635583;26;33378;-80
2022/01/11 10:09:30;;;;;;;17.05;7.87;;;;;;;2.37;50.67;101492.38;6636100;26;33085;-80
2022/01/11 10:12:47;;;;;;;14.57;7.50;;;;;;;2.36;50.31;101495.97;6633968;26;33437;-80
2022/01/11 10:15:50;;;;;;;14.93;7.70;;;;;;;2.38;49.74;101491.41;6634234;26;33309;-80
2022/01/11 10:18:55;;;;;;;17.33;8.00;;;;;;;2.40;49.54;101480.69;6635040;26;33921;-80
2022/01/11 10:22:02;;;;;;;14.85;8.60;;;;;;;2.57;49.91;101488.44;6634460;26;35031;-80
2022/01/11 10:25:07;;;;;;;13.95;7.80;;;;;;;2.54;49.40;101485.13;6634123;26;33360;-81
2022/01/11 10:28:10;;;;;;;19.42;7.53;;;;;;;2.66;49.36;101493.19;6634368;26;33820;-81
2022/01/11 10:31:32;;;;;;;16.48;7.97;;;;;;;2.65;49.52;101490.59;6640300;26;33399;-80
2022/01/11 10:34:35;;;;;;;16.95;7.03;;;;;;;2.53;49.29;101491.41;6642578;26;33624;-81
2022/01/11 10:37:45;;;;;;;13.65;6.93;;;;;;;2.43;49.24;101497.31;6635022;26;33776;-81
2022/01/11 10:40:48;;;;;;;12.43;6.95;;;;;;;2.60;49.40;101487.37;6633821;26;33873;-81
2022/01/11 10:43:52;;;;;;;18.35;7.47;;;;;;;2.57;49.29;101495.56;6633769;26;33263;-81
2022/01/11 10:46:54;;;;;;;13.75;7.40;;;;;;;2.61;49.86;101489.94;6637061;26;34017;-81
2022/01/11 10:50:02;;;;;;;11.88;7.03;;;;;;;2.77;49.03;101495.13;6635710;26;34948;-80
2022/01/11 10:53:11;;;;;;;12.07;6.75;;;;;;;2.80;48.94;101489.59;6633109;26;34604;-81
2022/01/11 10:56:16;;;;;;;14.98;7.12;;;;;;;2.72;49.01;101492.78;6633184;26;33955;-81
2022/01/11 10:59:20;;;;;;;14.75;7.47;;;;;;;2.75;48.89;101494.37;6635347;26;34341;-80
2022/01/11 11:02:26;;;;;;;14.48;7.50;;;;;;;2.86;49.13;101486.53;6638931;26;33945;-81
2022/01/11 11:05:49;;;;;;;15.50;7.65;;;;;;;2.87;48.88;101485.59;6641624;26;34181;-81
2022/01/11 11:08:52;;;;;;;16.00;7.53;;;;;;;3.02;48.57;101489.06;6634742;26;33676;-81
2022/01/11 11:12:17;;;;;;;13.45;7.53;;;;;;;3.21;48.89;101493.97;6634285;26;33387;-80
2022/01/11 11:15:27;;;;;;;12.35;6.87;;;;;;;3.12;47.75;101484.81;6635591;26;33777;-80
2022/01/11 11:18:43;;;;;;;13.48;7.57;;;;;;;3.31;48.25;101486.25;6634985;26;33270;-81
2022/01/11 11:21:48;;;;;;;13.50;7.00;;;;;;;3.46;47.51;101487.87;6635212;26;34071;-80
2022/01/11 11:24:52;;;;;;;13.50;6.95;;;;;;;3.26;47.46;101475.06;6634749;26;34918;-81
2022/01/11 11:27:55;;;;;;;21.90;7.62;;;;;;;3.28;47.55;101484.66;6634604;26;33466;-81
2022/01/11 11:30:58;;;;;;;14.73;7.68;;;;;;;3.37;47.21;101478.69;6634002;26;34531;-80
2022/01/11 11:34:03;;;;;;;11.35;7.20;;;;;;;3.46;47.33;101482.53;6633597;26;33505;-81
2022/01/11 11:37:07;;;;;;;12.88;7.50;;;;;;;3.71;46.98;101480.84;6633735;26;33522;-81
2022/01/11 11:40:18;;;;;;;15.52;8.45;;;;;;;4.19;46.01;101479.22;6634631;26;35302;-81
2022/01/11 11:43:22;;;;;;;15.93;8.00;;;;;;;4.41;45.14;101467.00;6638099;26;33361;-84
2022/01/11 11:47:02;;;;;;;16.08;7.70;;;;;;;4.61;44.61;101479.72;6634782;26;33790;-84
2022/01/11 11:50:06;;;;;;;12.23;7.22;;;;;;;4.46;45.14;101473.69;6525966;26;33955;-81
2022/01/11 11:53:38;;;;;;;14.95;8.25;;;;;;;4.84;44.33;101478.03;6636909;26;34262;-80
2022/01/11 11:56:46;;;;;;;12.73;7.10;;;;;;;5.12;43.33;101475.97;6635262;26;33640;-79
2022/01/11 12:00:11;;;;;;;15.13;7.85;;;;;;;5.27;43.58;101469.50;6633912;26;34402;-81
2022/01/11 12:03:25;;;;;;;13.50;6.87;;;;;;;5.71;42.47;101470.56;6614442;26;33460;-80
2022/01/11 12:06:29;;;;;;;16.08;7.28;;;;;;;6.25;41.34;101471.69;6636341;26;33112;-81
2022/01/11 12:09:42;;;;;;;12.00;7.55;;;;;;;6.28;40.47;101472.28;6636274;26;33468;-81
2022/01/11 12:12:49;;;;;;;13.50;7.62;;;;;;;6.48;40.28;101468.00;6633369;26;34300;-81
2022/01/11 12:15:52;;;;;;;13.70;7.37;;;;;;;6.53;40.02;101470.31;6632563;26;33497;-80
2022/01/11 12:19:00;;;;;;;14.23;7.22;;;;;;;6.83;39.13;101466.97;6634875;26;33205;-81
2022/01/11 12:22:06;;;;;;;12.60;7.18;;;;;;;6.73;39.16;101469.53;6633567;26;33230;-81
2022/01/11 12:25:28;;;;;;;12.18;6.95;;;;;;;7.33;38.81;101461.88;6633834;26;33926;-85
2022/01/11 12:28:31;;;;;;;11.73;7.00;;;;;;;7.85;36.71;101464.59;6634377;26;34687;-81
2022/01/11 12:31:37;;;;;;;13.07;7.10;;;;;;;7.89;36.87;101466.00;6633529;26;33450;-81
2022/01/11 12:34:49;;;;;;;13.02;7.10;;;;;;;8.53;36.30;101460.34;6633239;26;33874;-81
2022/01/11 12:38:08;;;;;;;10.95;6.55;;;;;;;8.06;36.56;101468.06;6633805;26;34162;-81
2022/01/11 12:41:33;;;;;;;17.87;7.32;;;;;;;7.58;37.29;101471.34;6639671;26;33605;-80
2022/01/11 12:47:47;;;;;;;10.38;6.55;;;;;;;9.38;33.76;101472.25;6633168;26;34463;-81
2022/01/11 12:51:00;;;;;;;12.30;7.30;;;;;;;10.21;32.41;101469.78;6633965;26;33593;-81
2022/01/11 12:54:17;;;;;;;11.15;7.37;;;;;;;11.50;30.56;101474.00;6646199;26;33304;-80
2022/01/11 12:57:23;;;;;;;14.80;7.25;;;;;;;11.58;29.80;101470.50;6642667;26;33622;-81
2022/01/11 13:00:26;;;;;;;11.68;6.93;;;;;;;12.55;28.07;101476.59;6650328;26;33916;-81
2022/01/11 13:03:29;;;;;;;11.23;7.18;;;;;;;13.68;27.04;101474.22;6633312;26;34267;-81
2022/01/11 13:06:35;;;;;;;11.35;7.00;;;;;;;13.48;26.34;101465.59;6633355;26;34431;-80
2022/01/11 13:09:38;;;;;;;10.77;6.93;;;;;;;12.72;27.26;101470.22;6640207;26;33810;-81
2022/01/11 13:12:44;;;;;;;11.98;6.75;;;;;;;12.57;27.86;101469.19;6640504;26;34240;-81
2022/01/11 13:15:49;;;;;;;10.32;6.90;;;;;;;11.80;28.72;101474.53;6632931;26;33529;-81
2022/01/11 13:18:53;;;;;;;11.52;7.22;;;;;;;9.29;32.12;101478.50;6632928;26;33352;-86
2022/01/11 13:22:10;;;;;;;13.45;7.80;;;;;;;7.91;34.94;101491.72;6633444;26;34291;-82
2022/01/11 13:25:13;;;;;;;11.25;7.40;;;;;;;5.87;38.83;101487.09;6633676;26;33197;-82
2022/01/11 13:28:38;;;;;;;12.32;7.15;;;;;;;5.08;40.69;101482.53;6632208;26;34056;-81
2022/01/11 13:31:40;;;;;;;12.27;7.32;;;;;;;4.34;42.60;101501.25;6635620;26;34095;-82
2022/01/11 13:34:43;;;;;;;12.80;7.40;;;;;;;4.07;43.70;101493.41;6634528;26;33384;-81
2022/01/11 13:37:47;;;;;;;13.48;7.80;;;;;;;3.91;44.40;101495.44;6634268;26;33320;-82
2022/01/11 13:40:50;;;;;;;12.98;7.32;;;;;;;3.69;44.72;101488.97;6634056;26;34656;-79
2022/01/11 13:43:57;;;;;;;13.35;6.47;;;;;;;3.64;45.26;101496.41;6633971;26;33572;-81
2022/01/11 13:47:08;;;;;;;13.65;6.60;;;;;;;3.43;45.46;101495.22;6636276;26;33178;-81
2022/01/11 13:50:11;;;;;;;12.88;7.18;;;;;;;3.31;46.16;101494.25;6635258;26;33706;-81
2022/01/11 13:53:24;;;;;;;13.23;7.25;;;;;;;3.16;46.42;101506.75;6635188;26;33933;-81
2022/01/11 13:56:33;;;;;;;12.18;6.75;;;;;;;3.16;46.32;101502.28;6634615;26;32961;-81
2022/01/11 13:59:36;;;;;;;11.53;6.47;;;;;;;3.07;46.20;101507.34;6633995;26;33316;-81
2022/01/11 14:02:40;;;;;;;13.77;6.22;;;;;;;2.99;46.89;101501.72;6639436;26;34380;-81
2022/01/11 14:05:44;;;;;;;14.25;7.05;;;;;;;2.91;47.10;101505.72;6642764;26;33321;-82
2022/01/11 14:08:52;;;;;;;12.35;6.62;;;;;;;2.86;46.81;101493.66;6634506;26;33362;-81
2022/01/11 14:12:08;;;;;;;13.45;6.43;;;;;;;2.83;47.23;101496.53;6634388;26;34010;-82
2022/01/11 14:15:12;;;;;;;16.98;6.90;;;;;;;2.86;47.34;101499.81;6634441;26;33996;-82
2022/01/11 14:18:15;;;;;;;14.18;5.93;;;;;;;2.72;48.27;101502.53;6634110;26;33235;-82
2022/01/11 14:21:19;;;;;;;9.02;5.62;;;;;;;2.79;47.29;101505.66;6633931;26;33088;-82
2022/01/11 14:24:24;;;;;;;10.80;6.12;;;;;;;2.67;47.93;101507.31;6634396;26;33640;-82
2022/01/11 14:27:30;;;;;;;10.88;6.00;;;;;;;2.67;47.61;101520.63;6634655;26;33598;-82
2022/01/11 14:30:39;;;;;;;12.10;4.80;;;;;;;2.57;47.67;101522.97;6636248;26;33779;-80
2022/01/11 14:33:45;;;;;;;12.00;5.22;;;;;;;2.59;47.00;101531.72;6637126;26;33509;-85
2022/01/11 14:36:48;;;;;;;10.80;5.62;;;;;;;2.63;46.99;101535.03;6636744;26;33941;-82
2022/01/11 14:39:51;;;;;;;10.95;5.07;;;;;;;2.45;47.47;101532.59;6639656;26;33507;-82
2022/01/11 14:43:05;;;;;;;9.57;4.87;;;;;;;2.40;47.08;101532.06;6635434;26;33532;-80
2022/01/11 14:46:17;;;;;;;11.45;5.20;;;;;;;2.33;47.61;101543.16;6635522;26;34055;-80
2022/01/11 14:49:24;;;;;;;7.93;5.05;;;;;;;2.27;47.91;101539.91;6635024;26;34319;-80
2022/01/11 14:52:27;;;;;;;7.68;4.55;;;;;;;2.25;48.31;101546.28;6634922;26;33623;-80
2022/01/11 14:55:50;;;;;;;10.07;4.70;;;;;;;2.25;48.60;101535.66;6634307;26;34662;-79
2022/01/11 14:59:04;;;;;;;7.20;4.75;;;;;;;2.26;48.43;101548.00;6633584;26;33439;-80
2022/01/11 15:02:10;;;;;;;8.80;5.22;;;;;;;2.21;48.54;101550.09;6637880;26;33447;-80
2022/01/11 15:05:21;;;;;;;8.90;5.22;;;;;;;2.21;48.40;101560.72;6638972;26;33470;-80
2022/01/11 15:08:30;;;;;;;8.45;4.57;;;;;;;2.09;48.45;101554.34;6633924;26;33520;-80
2022/01/11 15:11:38;;;;;;;10.05;4.90;;;;;;;2.06;48.52;101551.87;6633746;26;34826;-80
2022/01/11 15:14:42;;;;;;;10.25;4.53;;;;;;;2.04;49.34;101549.31;6633578;26;34160;-79
2022/01/11 15:17:45;;;;;;;8.13;4.62;;;;;;;2.08;48.41;101557.97;6634014;26;33165;-80
2022/01/11 15:20:48;;;;;;;8.10;4.90;;;;;;;2.08;48.04;101557.09;6634468;26;33787;-80
2022/01/11 15:23:51;;;;;;;10.23;4.82;;;;;;;2.08;48.21;101570.38;6633814;26;33927;-80
2022/01/11 15:26:54;;;;;;;10.93;5.07;;;;;;;2.07;48.28;101574.84;6633414;26;33927;-79
2022/01/11 15:29:57;;;;;;;8.30;5.15;;;;;;;2.02;48.40;101574.28;6635048;26;34115;-79
2022/01/11 15:33:00;;;;;;;8.73;5.20;;;;;;;1.91;48.80;101568.75;6639920;26;33670;-80
2022/01/11 15:36:03;;;;;;;10.88;6.10;;;;;;;1.89;49.02;101582.13;6637494;26;33614;-80
2022/01/11 15:39:06;;;;;;;11.73;6.15;;;;;;;1.74;49.48;101580.38;6635623;26;33854;-79
2022/01/11 15:42:09;;;;;;;8.88;4.93;;;;;;;1.57;49.82;101582.22;6635567;26;33560;-80
2022/01/11 15:45:12;;;;;;;8.38;5.20;;;;;;;1.49;49.95;101581.84;6636154;26;34624;-80
2022/01/11 15:48:15;;;;;;;11.43;5.45;;;;;;;1.48;50.15;101584.56;6635127;26;34730;-80
2022/01/11 15:51:19;;;;;;;9.13;5.75;;;;;;;1.43;50.09;101582.16;6634103;26;33776;-80
2022/01/11 15:54:22;;;;;;;13.68;6.00;;;;;;;1.37;50.26;101595.81;6633634;26;34055;-84
2022/01/11 15:57:25;;;;;;;11.50;6.25;;;;;;;1.27;51.06;101595.47;6633952;26;33890;-84
2022/01/11 16:00:27;;;;;;;8.05;5.25;;;;;;;1.35;50.83;101603.88;6635740;26;33246;-84
2022/01/11 16:03:33;;;;;;;9.88;5.72;;;;;;;1.39;50.87;101609.00;6639098;26;33262;-80
2022/01/11 16:06:37;;;;;;;9.93;5.37;;;;;;;1.31;51.08;101610.28;6633641;26;33417;-81
2022/01/11 16:09:40;;;;;;;9.02;5.55;;;;;;;1.39;50.78;101612.50;6633677;26;33237;-81
2022/01/11 16:12:42;;;;;;;9.85;5.68;;;;;;;1.45;51.07;101611.28;6633514;26;33661;-81
2022/01/11 16:15:47;;;;;;;13.05;7.18;;;;;;;1.43;51.01;101619.31;6632687;26;33423;-81
2022/01/11 16:18:50;;;;;;;11.73;6.30;;;;;;;1.45;51.02;101620.09;6633712;26;33693;-81
2022/01/11 16:21:53;;;;;;;10.95;5.70;;;;;;;1.45;51.62;101619.25;6634055;26;33174;-80
2022/01/11 16:25:01;;;;;;;15.15;6.78;;;;;;;1.35;51.17;101627.75;6641029;26;34242;-81
2022/01/11 16:28:05;;;;;;;19.00;6.87;;;;;;;1.39;51.03;101620.47;6645638;26;33642;-81
2022/01/11 16:31:08;;;;;;;13.00;6.95;;;;;;;1.39;51.39;101627.56;6633793;26;34239;-81
2022/01/11 16:34:12;;;;;;;14.15;7.00;;;;;;;1.33;51.49;101631.41;6634066;26;35079;-80
2022/01/11 16:37:15;;;;;;;13.60;7.10;;;;;;;1.28;51.67;101634.31;6633693;26;33431;-80
2022/01/11 16:43:42;;;;;;;14.87;7.20;;;;;;;1.13;52.44;101635.19;6611289;26;33643;-80
2022/01/11 16:46:53;;;;;;;13.13;7.00;;;;;;;1.06;52.59;101629.38;6634176;26;33320;-80
2022/01/11 16:49:56;;;;;;;13.70;7.00;;;;;;;0.99;52.75;101641.25;6634365;26;33523;-79
2022/01/11 16:52:59;;;;;;;13.23;7.22;;;;;;;0.89;53.44;101638.28;6634773;26;33573;-79
2022/01/11 16:56:03;;;;;;;15.23;7.45;;;;;;;0.81;52.88;101647.59;6638307;26;33880;-80
2022/01/11 16:59:06;;;;;;;14.18;7.15;;;;;;;0.79;53.51;101654.75;6636846;26;34930;-80
